Time;durP1;ratioP1;P1;durP2;ratioP2;P2;SDS_P1;SDS_P2;PMS_P1;PMS_P2;Temp;Humidity;BMP_temperature;BMP_pressure;BME280_temperature;BME280_humidity;BME280_pressure;Samples;Min_cycle;Max_cycle;Signal;HPM_P1;HPM_P2
2022/10/22 00:02:41;;;;;;;;;;;23.60;61.50;;;;;;6253603;28;20105;-58
2022/10/22 00:05:42;;;;;;;0.70;0.20;;;22.90;61.20;;;;;;6244340;28;20421;-57
2022/10/22 00:08:44;;;;;;;;;;;23.00;61.10;;;;;;6257584;28;20044;-57
2022/10/22 00:11:45;;;;;;;0.50;0.20;;;23.40;61.20;;;;;;6261885;28;21235;-54
2022/10/22 00:14:48;;;;;;;0.10;0.10;;;22.90;61.00;;;;;;6254877;28;20040;-56
2022/10/22 00:17:50;;;;;;;0.57;0.30;;;23.00;60.70;;;;;;6225600;28;20052;-56
2022/10/22 00:20:51;;;;;;;0.40;0.20;;;23.20;60.90;;;;;;6259512;28;20052;-58
2022/10/22 00:23:52;;;;;;;;;;;22.70;61.00;;;;;;6263540;28;20159;-58
2022/10/22 00:26:54;;;;;;;2.08;0.30;;;22.80;61.40;;;;;;6260060;28;19921;-58
2022/10/22 00:29:55;;;;;;;0.73;0.20;;;23.10;76.20;;;;;;6258670;28;20078;-57
2022/10/22 00:33:00;;;;;;;;;;;23.20;61.50;;;;;;6255998;28;20132;-58
2022/10/22 00:36:02;;;;;;;0.40;0.20;;;22.90;61.40;;;;;;6252987;28;19920;-56
2022/10/22 00:39:03;;;;;;;0.77;0.30;;;23.00;61.40;;;;;;6256964;28;20830;-55
2022/10/22 00:42:04;;;;;;;;;;;23.00;61.50;;;;;;6257483;28;20151;-52
2022/10/22 00:45:17;;;;;;;0.50;0.20;;;23.10;61.80;;;;;;6256887;28;20876;-58
2022/10/22 00:48:21;;;;;;;0.50;0.20;;;23.20;61.40;;;;;;6243949;28;20163;-55
2022/10/22 00:51:27;;;;;;;0.90;0.30;;;23.00;61.40;;;;;;6255799;28;20138;-58
2022/10/22 00:54:29;;;;;;;0.68;0.30;;;22.60;61.30;;;;;;6241134;28;21025;-55
2022/10/22 00:57:30;;;;;;;;;;;22.70;61.60;;;;;;6260409;28;20068;-56
2022/10/22 01:00:32;;;;;;;0.20;0.20;;;23.30;62.10;;;;;;6264230;28;20031;-57
2022/10/22 01:03:34;;;;;;;0.47;0.32;;;23.20;61.80;;;;;;6257799;28;20039;-56
2022/10/22 01:06:36;;;;;;;0.55;0.25;;;23.20;61.90;;;;;;6261107;28;20036;-58
2022/10/22 01:09:41;;;;;;;;;;;23.00;61.80;;;;;;6254996;28;20079;-56
2022/10/22 01:12:50;;;;;;;0.60;0.20;;;23.20;61.80;;;;;;6256926;28;20076;-55
2022/10/22 01:15:59;;;;;;;1.10;0.32;;;23.40;61.90;;;;;;6258821;28;20068;-57
2022/10/22 01:19:14;;;;;;;0.60;0.40;;;22.90;61.80;;;;;;6239607;28;20043;-58
2022/10/22 01:22:21;;;;;;;0.52;0.38;;;23.10;61.90;;;;;;6261422;28;20146;-58
2022/10/22 01:25:33;;;;;;;0.80;0.40;;;22.70;61.60;;;;;;6246664;28;20092;-58
2022/10/22 01:28:49;;;;;;;1.60;0.40;;;23.30;62.10;;;;;;6258148;28;20141;-57
2022/10/22 01:31:57;;;;;;;1.20;0.50;;;23.00;62.00;;;;;;6255577;28;20895;-57
2022/10/22 01:35:01;;;;;;;0.95;0.40;;;22.70;62.00;;;;;;6241158;28;20037;-58
2022/10/22 01:38:06;;;;;;;0.30;0.20;;;22.80;62.10;;;;;;6255516;28;20134;-56
2022/10/22 01:41:09;;;;;;;0.80;0.30;;;22.90;62.00;;;;;;6257597;28;20044;-56
2022/10/22 01:44:24;;;;;;;1.20;0.40;;;22.90;62.90;;;;;;6259214;28;20151;-58
2022/10/22 01:47:38;;;;;;;0.63;0.20;;;23.00;62.40;;;;;;6260337;28;20047;-58
2022/10/22 01:50:55;;;;;;;0.38;0.30;;;22.90;62.50;;;;;;6255893;28;20050;-54
2022/10/22 01:54:03;;;;;;;0.73;0.35;;;23.40;62.70;;;;;;6252461;28;20041;-58
2022/10/22 01:57:12;;;;;;;0.73;0.20;;;22.90;62.50;;;;;;6254405;28;20040;-57
2022/10/22 02:00:17;;;;;;;0.77;0.28;;;22.70;62.50;;;;;;6257560;28;20056;-59
2022/10/22 02:03:24;;;;;;;0.95;0.30;;;23.00;62.70;;;;;;6242447;28;20594;-58
2022/10/22 02:06:29;;;;;;;0.77;0.38;;;22.70;62.40;;;;;;6247523;28;20047;-57
2022/10/22 02:09:32;;;;;;;0.75;0.40;;;22.90;62.60;;;;;;6257074;28;20885;-58
2022/10/22 02:12:35;;;;;;;0.43;0.22;;;23.00;62.60;;;;;;6241789;28;20350;-56
2022/10/22 02:15:39;;;;;;;1.30;0.38;;;23.10;62.70;;;;;;6250713;28;20084;-57
2022/10/22 02:18:47;;;;;;;1.38;0.40;;;22.90;62.60;;;;;;6255353;28;20266;-56
2022/10/22 02:21:49;;;;;;;0.40;0.30;;;22.80;62.50;;;;;;6255273;28;20048;-53
2022/10/22 02:24:50;;;;;;;0.75;0.30;;;23.20;62.90;;;;;;6253829;28;20080;-57
2022/10/22 02:28:01;;;;;;;1.27;0.50;;;23.10;63.00;;;;;;6258446;28;20873;-57
2022/10/22 02:31:12;;;;;;;0.32;0.20;;;22.70;62.50;;;;;;6254701;28;20570;-58
2022/10/22 02:34:19;;;;;;;0.38;0.20;;;22.90;62.60;;;;;;6239428;28;20397;-58
2022/10/22 02:37:26;;;;;;;0.40;0.20;;;23.10;62.60;;;;;;6245732;28;20075;-56
2022/10/22 02:40:29;;;;;;;0.80;0.30;;;22.80;62.50;;;;;;6258271;28;20435;-55
2022/10/22 02:43:39;;;;;;;0.40;0.20;;;23.10;62.60;;;;;;6257653;28;20437;-57
2022/10/22 02:46:42;;;;;;;0.73;0.25;;;23.10;62.60;;;;;;6237854;28;20044;-56
2022/10/22 02:49:47;;;;;;;0.47;0.22;;;23.00;62.60;;;;;;6250293;28;20096;-53
2022/10/22 02:52:48;;;;;;;1.60;0.40;;;22.90;62.60;;;;;;6254454;28;20361;-54
2022/10/22 02:55:50;;;;;;;;;;;22.80;62.60;;;;;;6252068;28;20419;-57
2022/10/22 02:58:51;;;;;;;0.35;0.20;;;22.60;62.80;;;;;;6247547;28;20366;-55
2022/10/22 03:01:53;;;;;;;;;;;22.80;62.70;;;;;;6254036;28;20156;-56
2022/10/22 03:04:54;;;;;;;0.68;0.30;;;22.60;62.70;;;;;;6254020;28;19993;-54
2022/10/22 03:07:56;;;;;;;;;;;22.80;62.70;;;;;;6253314;28;20318;-56
2022/10/22 03:10:57;;;;;;;0.32;0.20;;;22.80;62.90;;;;;;6254224;28;20337;-58
2022/10/22 03:13:58;;;;;;;;;;;22.60;62.50;;;;;;6256387;28;20051;-55
2022/10/22 03:17:00;;;;;;;0.55;0.20;;;22.70;63.00;;;;;;6253116;28;20581;-58
2022/10/22 03:20:03;;;;;;;0.93;0.40;;;22.50;62.40;;;;;;6252162;28;20139;-55
2022/10/22 03:23:04;;;;;;;0.65;0.30;;;23.00;62.70;;;;;;6254678;28;20485;-58
2022/10/22 03:26:06;;;;;;;0.40;0.20;;;22.90;62.70;;;;;;6255198;28;20044;-58
2022/10/22 03:29:09;;;;;;;0.45;0.30;;;22.60;62.50;;;;;;6250859;28;20621;-56
2022/10/22 03:32:11;;;;;;;0.30;0.17;;;22.50;62.30;;;;;;6255293;28;20105;-58
2022/10/22 03:35:13;;;;;;;0.65;0.30;;;23.00;62.70;;;;;;6258817;28;21009;-53
2022/10/22 03:38:15;;;;;;;;;;;22.90;62.70;;;;;;6254001;28;20494;-57
2022/10/22 03:41:16;;;;;;;0.38;0.30;;;23.00;63.00;;;;;;6255647;28;20860;-58
2022/10/22 03:44:19;;;;;;;0.40;0.20;;;22.90;62.80;;;;;;6251316;28;20083;-56
2022/10/22 03:47:23;;;;;;;1.15;0.30;;;22.50;62.30;;;;;;6238827;28;20058;-58
2022/10/22 03:50:24;;;;;;;0.65;0.30;;;22.80;62.40;;;;;;6255351;28;20491;-56
2022/10/22 03:53:26;;;;;;;0.22;0.13;;;22.80;62.50;;;;;;6260002;28;20467;-57
2022/10/22 03:56:27;;;;;;;;;;;22.80;62.60;;;;;;6262194;28;20340;-54
2022/10/22 03:59:33;;;;;;;0.20;0.20;;;22.60;62.70;;;;;;6252940;28;20209;-58
2022/10/22 04:02:34;;;;;;;0.30;0.20;;;22.60;62.20;;;;;;6254082;28;20349;-57
2022/10/22 04:05:36;;;;;;;0.65;0.30;;;22.70;62.40;;;;;;6258422;28;20111;-58
2022/10/22 04:08:40;;;;;;;;;;;23.00;62.60;;;;;;6253860;28;20477;-55
2022/10/22 04:11:42;;;;;;;0.65;0.28;;;22.50;62.50;;;;;;6251648;28;20055;-55
2022/10/22 04:14:44;;;;;;;0.60;0.30;;;23.10;62.60;;;;;;6256246;28;20273;-55
2022/10/22 04:17:46;;;;;;;;;;;22.70;62.40;;;;;;6249571;28;20070;-58
2022/10/22 04:20:51;;;;;;;0.75;0.30;;;22.90;62.70;;;;;;6242969;28;20018;-56
2022/10/22 04:23:53;;;;;;;0.65;0.30;;;22.60;62.00;;;;;;6229879;28;20133;-55
2022/10/22 04:26:54;;;;;;;;;;;22.70;62.30;;;;;;6248690;28;20362;-57
2022/10/22 04:29:56;;;;;;;0.25;0.15;;;22.70;77.60;;;;;;6249032;28;20591;-56
2022/10/22 04:32:57;;;;;;;;;;;22.40;62.30;;;;;;6249159;28;20459;-57
2022/10/22 04:35:59;;;;;;;1.02;0.20;;;22.30;62.50;;;;;;6250588;28;20343;-59
2022/10/22 04:39:01;;;;;;;;;;;22.80;62.70;;;;;;6248511;28;20056;-56
2022/10/22 04:42:03;;;;;;;0.75;0.32;;;22.80;62.70;;;;;;6243568;28;19982;-58
2022/10/22 04:45:05;;;;;;;0.47;0.20;;;22.50;62.40;;;;;;6229938;28;20118;-56
2022/10/22 04:48:07;;;;;;;0.57;0.20;;;22.50;62.30;;;;;;6243040;28;20162;-55
2022/10/22 04:51:13;;;;;;;0.38;0.20;;;22.40;61.90;;;;;;6246484;28;20573;-56
2022/10/22 04:54:15;;;;;;;0.30;0.20;;;22.70;62.40;;;;;;6249905;28;20629;-55
2022/10/22 04:57:16;;;;;;;;;;;22.40;62.40;;;;;;6246407;28;20392;-52
2022/10/22 05:00:17;;;;;;;0.45;0.20;;;22.40;62.60;;;;;;6244645;28;19967;-55
2022/10/22 05:03:19;;;;;;;;;;;22.60;62.60;;;;;;6241840;28;20056;-55
2022/10/22 05:06:21;;;;;;;0.40;0.28;;;22.80;62.80;;;;;;6251804;28;20381;-56
2022/10/22 05:09:23;;;;;;;0.70;0.30;;;22.70;62.50;;;;;;6245132;28;20078;-59
2022/10/22 05:12:24;;;;;;;1.00;0.30;;;22.40;62.40;;;;;;6245941;28;20306;-58
2022/10/22 05:15:26;;;;;;;0.60;0.20;;;22.80;62.60;;;;;;6250334;28;20590;-57
2022/10/22 05:18:28;;;;;;;;;;;22.30;62.30;;;;;;6252062;28;20076;-56
2022/10/22 05:21:29;;;;;;;;;;;22.50;62.70;;;;;;6250168;28;20099;-57
2022/10/22 05:24:32;;;;;;;0.28;0.20;;;23.00;63.00;;;;;;6247847;28;19924;-57
2022/10/22 05:27:34;;;;;;;0.55;0.30;;;22.70;62.40;;;;;;6245433;28;20728;-54
2022/10/22 05:30:35;;;;;;;;;;;22.60;62.60;;;;;;6248002;28;20372;-55
2022/10/22 05:33:37;;;;;;;1.05;0.40;;;22.60;62.70;;;;;;6251584;28;20446;-55
2022/10/22 05:36:39;;;;;;;0.65;0.30;;;22.70;62.80;;;;;;6251316;28;20135;-57
2022/10/22 05:39:40;;;;;;;;;;;22.50;62.60;;;;;;6248597;28;20101;-56
2022/10/22 05:42:42;;;;;;;0.45;0.25;;;22.40;62.90;;;;;;6248511;28;19949;-54
2022/10/22 05:45:43;;;;;;;0.65;0.30;;;22.50;62.70;;;;;;6248227;28;20269;-56
2022/10/22 05:48:48;;;;;;;;;;;22.70;62.90;;;;;;6243346;28;20589;-58
2022/10/22 05:51:49;;;;;;;0.70;0.30;;;22.60;62.90;;;;;;6230571;28;19928;-57
2022/10/22 05:54:51;;;;;;;0.80;0.30;;;22.40;62.80;;;;;;6251803;28;20571;-59
2022/10/22 05:57:52;;;;;;;;;;;21.90;62.70;;;;;;6250039;28;20062;-57
2022/10/22 06:00:54;;;;;;;0.68;0.20;;;22.40;63.30;;;;;;6247288;28;20063;-54
2022/10/22 06:03:57;;;;;;;0.60;0.30;;;22.70;63.10;;;;;;6252269;28;20126;-58
2022/10/22 06:06:59;;;;;;;0.57;0.25;;;22.40;62.90;;;;;;6213113;28;20036;-56
2022/10/22 06:10:00;;;;;;;;;;;22.30;63.00;;;;;;6242575;28;20047;-58
2022/10/22 06:13:06;;;;;;;0.43;0.20;;;22.80;63.50;;;;;;6247123;28;20608;-58
2022/10/22 06:16:08;;;;;;;0.32;0.20;;;22.80;63.40;;;;;;6248064;28;20039;-56
2022/10/22 06:19:11;;;;;;;0.82;0.30;;;23.10;63.50;;;;;;6244802;28;20464;-56
2022/10/22 06:22:12;;;;;;;0.50;0.22;;;22.40;62.90;;;;;;6245683;28;20403;-54
2022/10/22 06:25:14;;;;;;;0.63;0.30;;;22.50;62.90;;;;;;6249606;28;20122;-57
2022/10/22 06:28:15;;;;;;;0.40;0.28;;;22.50;63.00;;;;;;6245721;28;20306;-55
2022/10/22 06:31:17;;;;;;;;;;;22.50;63.00;;;;;;6243752;28;20047;-57
2022/10/22 06:34:19;;;;;;;0.55;0.10;;;22.80;63.30;;;;;;6246168;28;20394;-54
2022/10/22 06:37:20;;;;;;;0.68;0.30;;;22.70;63.00;;;;;;6247527;28;20845;-56
2022/10/22 06:40:24;;;;;;;;;;;22.80;63.10;;;;;;6246868;28;20040;-54
2022/10/22 06:43:28;;;;;;;0.73;0.30;;;22.50;63.10;;;;;;6247690;28;19928;-58
2022/10/22 06:46:30;;;;;;;0.52;0.20;;;22.30;62.50;;;;;;6250113;28;20041;-56
2022/10/22 06:49:32;;;;;;;0.50;0.22;;;22.70;63.00;;;;;;6244533;28;20897;-57
2022/10/22 06:52:34;;;;;;;0.45;0.20;;;22.50;62.90;;;;;;6245567;28;20040;-55
2022/10/22 06:55:35;;;;;;;1.00;0.43;;;22.90;63.20;;;;;;6243075;28;20458;-57
2022/10/22 06:58:42;;;;;;;0.60;0.25;;;22.80;63.10;;;;;;6241570;28;20044;-56
2022/10/22 07:01:43;;;;;;;0.50;0.20;;;23.00;63.20;;;;;;6246751;28;20452;-58
2022/10/22 07:04:46;;;;;;;0.68;0.20;;;22.80;62.60;;;;;;6248770;28;20368;-58
2022/10/22 07:07:48;;;;;;;0.32;0.20;;;22.90;62.70;;;;;;6248156;28;20350;-57
2022/10/22 07:10:49;;;;;;;0.30;0.30;;;22.90;63.00;;;;;;6246573;28;20624;-56
2022/10/22 07:13:53;;;;;;;0.68;0.28;;;22.80;63.00;;;;;;6248815;28;20098;-58
2022/10/22 07:16:54;;;;;;;0.60;0.20;;;23.30;63.10;;;;;;6231066;28;20372;-54
2022/10/22 07:19:56;;;;;;;;;;;22.50;62.80;;;;;;6250847;28;20120;-56
2022/10/22 07:22:58;;;;;;;0.40;0.20;;;22.50;62.90;;;;;;6249791;28;20693;-57
2022/10/22 07:26:01;;;;;;;0.20;0.20;;;22.90;63.10;;;;;;6253257;28;20503;-52
2022/10/22 07:29:03;;;;;;;0.30;0.30;;;22.90;62.90;;;;;;6248093;28;20040;-54
2022/10/22 07:32:05;;;;;;;0.50;0.20;;;22.60;62.70;;;;;;6238487;28;20051;-57
2022/10/22 07:35:08;;;;;;;0.40;0.20;;;23.00;63.00;;;;;;6250458;28;20887;-54
2022/10/22 07:38:10;;;;;;;0.52;0.22;;;22.90;63.00;;;;;;6244871;28;20059;-57
2022/10/22 07:41:15;;;;;;;;;;;22.90;63.00;;;;;;6249257;28;20039;-54
2022/10/22 07:44:16;;;;;;;0.38;0.20;;;23.00;63.30;;;;;;6231026;28;19924;-56
2022/10/22 07:47:18;;;;;;;0.50;0.20;;;22.80;62.90;;;;;;6251743;28;20495;-56
2022/10/22 07:50:20;;;;;;;0.75;0.28;;;23.30;63.50;;;;;;6246990;28;20312;-55
2022/10/22 07:53:22;;;;;;;0.52;0.30;;;22.90;63.10;;;;;;6250008;28;20082;-56
2022/10/22 07:56:23;;;;;;;0.75;0.40;;;22.70;63.20;;;;;;6249695;28;20326;-54
2022/10/22 07:59:25;;;;;;;0.73;0.30;;;22.60;63.00;;;;;;6246047;28;20722;-57
2022/10/22 08:02:27;;;;;;;0.82;0.40;;;22.70;63.20;;;;;;6244419;28;20586;-54
2022/10/22 08:05:29;;;;;;;;;;;22.90;63.30;;;;;;6253535;28;20044;-58
2022/10/22 08:08:30;;;;;;;0.93;0.30;;;23.40;63.20;;;;;;6255812;28;20529;-54
2022/10/22 08:11:32;;;;;;;1.30;0.30;;;22.90;63.30;;;;;;6249836;28;20044;-55
2022/10/22 08:14:34;;;;;;;0.60;0.40;;;22.90;63.70;;;;;;6253656;28;20062;-55
2022/10/22 08:17:35;;;;;;;42.88;5.03;;;22.90;63.80;;;;;;6244823;28;20958;-51
2022/10/22 08:20:38;;;;;;;20.10;2.05;;;23.10;64.20;;;;;;6243891;28;20050;-52
2022/10/22 08:23:39;;;;;;;9.05;0.90;;;22.80;63.90;;;;;;6212942;28;20113;-49
2022/10/22 08:26:41;;;;;;;8.18;0.85;;;23.00;64.40;;;;;;6248426;28;20086;-50
2022/10/22 08:29:43;;;;;;;6.63;0.88;;;22.70;64.10;;;;;;6212732;28;20135;-52
2022/10/22 08:32:44;;;;;;;5.97;0.68;;;23.00;64.40;;;;;;6249530;28;20079;-51
2022/10/22 08:35:48;;;;;;;;;;;23.10;64.50;;;;;;6248013;28;20854;-51
2022/10/22 08:38:50;;;;;;;6.22;0.70;;;23.10;64.60;;;;;;6247194;28;19996;-49
2022/10/22 08:42:01;;;;;;;4.47;0.43;;;22.90;64.10;;;;;;6239932;28;20417;-52
2022/10/22 08:45:09;;;;;;;1.42;0.60;;;23.30;64.50;;;;;;6248504;28;20327;-52
2022/10/22 08:48:25;;;;;;;4.43;0.50;;;22.70;64.30;;;;;;6229453;28;20229;-51
2022/10/22 08:51:33;;;;;;;2.92;0.70;;;22.90;64.40;;;;;;6248388;28;20551;-49
2022/10/22 08:54:46;;;;;;;0.90;0.25;;;22.90;64.50;;;;;;6249688;28;20043;-54
2022/10/22 08:57:54;;;;;;;2.65;0.50;;;23.00;64.50;;;;;;6252882;28;20040;-53
2022/10/22 09:00:59;;;;;;;2.20;0.40;;;22.80;64.60;;;;;;6247084;28;20233;-53
2022/10/22 09:04:06;;;;;;;0.90;0.32;;;22.80;64.50;;;;;;6229682;28;20058;-54
2022/10/22 09:07:09;;;;;;;1.33;0.40;;;22.30;64.20;;;;;;6229071;28;20037;-52
2022/10/22 09:10:12;;;;;;;0.75;0.30;;;22.90;65.20;;;;;;6248316;28;20043;-52
2022/10/22 09:13:19;;;;;;;1.00;0.40;;;22.70;64.50;;;;;;6251999;28;20044;-56
2022/10/22 09:16:29;;;;;;;1.10;0.35;;;23.10;64.70;;;;;;6253121;28;20333;-52
2022/10/22 09:19:38;;;;;;;2.40;0.47;;;23.20;64.70;;;;;;6228632;28;20306;-52
2022/10/22 09:22:50;;;;;;;1.20;0.28;;;22.80;64.60;;;;;;6231166;28;20253;-55
2022/10/22 09:25:52;;;;;;;0.85;0.30;;;23.20;64.80;;;;;;6250112;28;20337;-52
2022/10/22 09:28:53;;;;;;;1.10;0.32;;;22.90;64.80;;;;;;6248886;28;20457;-51
2022/10/22 09:31:55;;;;;;;1.08;0.28;;;22.80;64.70;;;;;;6251016;28;20976;-54
2022/10/22 09:34:57;;;;;;;;;;;23.00;65.00;;;;;;6249566;28;20364;-50
2022/10/22 09:38:06;;;;;;;0.80;0.30;;;23.10;65.00;;;;;;6232362;28;19974;-53
2022/10/22 09:41:08;;;;;;;0.50;0.20;;;22.90;64.70;;;;;;6252946;28;20035;-51
2022/10/22 09:44:12;;;;;;;0.70;0.30;;;22.90;64.90;;;;;;6250111;28;20159;-53
2022/10/22 09:47:28;;;;;;;0.70;0.28;;;23.20;65.60;;;;;;6231780;28;20095;-54
2022/10/22 09:50:47;;;;;;;0.80;0.40;;;23.20;65.00;;;;;;6215927;28;20036;-53
2022/10/22 09:53:57;;;;;;;0.90;0.30;;;23.10;64.90;;;;;;6220419;28;20056;-54
2022/10/22 09:57:04;;;;;;;0.43;0.20;;;23.50;64.90;;;;;;6246377;28;20883;-56
2022/10/22 10:00:08;;;;;;;0.45;0.30;;;23.00;64.90;;;;;;6238208;28;20052;-57
2022/10/22 10:03:16;;;;;;;0.43;0.30;;;23.20;65.00;;;;;;6237408;28;20040;-50
2022/10/22 10:06:19;;;;;;;0.60;0.40;;;23.30;65.10;;;;;;6226114;28;20051;-51
2022/10/22 10:09:23;;;;;;;0.85;0.40;;;23.20;65.00;;;;;;6237002;28;20617;-49
2022/10/22 10:12:36;;;;;;;0.75;0.32;;;23.40;65.20;;;;;;6223510;28;20514;-50
2022/10/22 10:15:43;;;;;;;0.55;0.30;;;23.20;64.90;;;;;;6245977;28;20044;-53
2022/10/22 10:18:57;;;;;;;0.68;0.30;;;22.90;64.90;;;;;;6230782;28;20856;-56
2022/10/22 10:22:09;;;;;;;0.65;0.30;;;22.90;64.90;;;;;;6245992;28;20153;-52
2022/10/22 10:25:26;;;;;;;0.32;0.20;;;23.10;64.90;;;;;;6247186;28;20438;-52
2022/10/22 10:28:44;;;;;;;0.85;0.30;;;23.30;65.10;;;;;;6224660;28;20135;-57
2022/10/22 10:31:59;;;;;;;0.95;0.30;;;22.90;64.90;;;;;;6237651;28;20229;-57
2022/10/22 10:35:14;;;;;;;0.20;0.20;;;23.20;65.10;;;;;;6252363;28;20141;-54
2022/10/22 10:38:30;;;;;;;0.63;0.30;;;23.40;65.20;;;;;;6250463;28;20328;-55
2022/10/22 10:41:43;;;;;;;1.10;0.10;;;23.30;65.20;;;;;;6256000;28;20285;-54
2022/10/22 10:44:58;;;;;;;0.60;0.30;;;23.00;65.00;;;;;;6253309;28;20754;-51
2022/10/22 10:48:13;;;;;;;0.40;0.30;;;23.30;65.00;;;;;;6252920;28;20351;-54
2022/10/22 10:51:30;;;;;;;1.02;0.20;;;23.30;65.20;;;;;;6243777;28;20163;-52
2022/10/22 10:54:42;;;;;;;2.15;0.50;;;23.50;65.30;;;;;;6250117;28;20036;-53
2022/10/22 10:57:53;;;;;;;0.38;0.30;;;23.20;65.00;;;;;;6247997;28;20364;-53
2022/10/22 11:00:57;;;;;;;0.40;0.30;;;23.30;65.20;;;;;;6233783;28;20319;-50
2022/10/22 11:04:19;;;;;;;0.60;0.30;;;23.20;65.10;;;;;;6253131;28;20041;-53
2022/10/22 11:07:23;;;;;;;;;;;23.00;65.10;;;;;;6249056;28;20331;-52
2022/10/22 11:10:39;;;;;;;0.70;0.40;;;22.90;65.30;;;;;;6255430;28;19923;-53
2022/10/22 11:13:47;;;;;;;0.82;0.40;;;23.20;64.90;;;;;;6249570;28;20216;-54
2022/10/22 11:16:54;;;;;;;0.75;0.45;;;23.20;65.30;;;;;;6255194;28;20048;-54
2022/10/22 11:20:02;;;;;;;1.23;0.70;;;23.40;65.30;;;;;;6249996;28;20628;-52
2022/10/22 11:23:08;;;;;;;0.55;0.30;;;23.50;65.40;;;;;;6224831;28;20387;-54
2022/10/22 11:26:34;;;;;;;1.33;0.40;;;23.00;65.00;;;;;;6224644;28;20439;-52
2022/10/22 11:29:42;;;;;;;0.65;0.30;;;23.10;65.20;;;;;;6234751;28;20152;-53
2022/10/22 11:32:48;;;;;;;1.75;0.50;;;23.40;65.20;;;;;;6238306;28;20427;-55
2022/10/22 11:35:50;;;;;;;1.33;0.60;;;23.30;65.20;;;;;;6255047;28;20149;-53
2022/10/22 11:38:53;;;;;;;1.42;0.50;;;23.30;65.20;;;;;;6253132;28;20151;-50
2022/10/22 11:41:56;;;;;;;1.02;0.30;;;23.10;65.00;;;;;;6234497;28;20036;-54
2022/10/22 11:45:01;;;;;;;2.20;0.43;;;23.20;65.10;;;;;;6251336;28;20731;-53
2022/10/22 11:48:14;;;;;;;2.47;0.75;;;23.60;65.20;;;;;;6232436;28;20798;-53
2022/10/22 11:51:31;;;;;;;1.42;0.30;;;23.50;65.60;;;;;;6232611;28;20569;-52
2022/10/22 11:54:41;;;;;;;0.80;0.40;;;23.40;65.10;;;;;;6256442;28;20142;-53
2022/10/22 11:57:47;;;;;;;0.55;0.32;;;23.60;65.20;;;;;;6232312;28;20081;-52
2022/10/22 12:00:49;;;;;;;0.98;0.30;;;23.40;65.10;;;;;;6231582;28;20051;-53
2022/10/22 12:03:52;;;;;;;1.80;0.32;;;23.50;64.90;;;;;;6248905;28;20538;-54
2022/10/22 12:06:59;;;;;;;0.75;0.30;;;23.10;64.50;;;;;;6229859;28;20956;-51
2022/10/22 12:10:05;;;;;;;1.23;0.32;;;23.30;64.60;;;;;;6251348;28;20048;-53
2022/10/22 12:13:12;;;;;;;1.33;0.40;;;23.20;64.50;;;;;;6251044;28;20731;-54
2022/10/22 12:16:14;;;;;;;1.15;0.45;;;23.40;64.60;;;;;;6248926;28;20118;-52
2022/10/22 12:19:28;;;;;;;1.20;0.43;;;23.60;64.70;;;;;;6243015;28;20478;-52
2022/10/22 12:22:31;;;;;;;1.35;0.25;;;23.70;64.40;;;;;;6237044;28;20395;-54
2022/10/22 12:25:33;;;;;;;2.38;0.50;;;23.90;64.50;;;;;;6248805;28;20050;-52
2022/10/22 12:28:39;;;;;;;1.20;0.32;;;23.80;64.60;;;;;;6243876;28;20051;-50
2022/10/22 12:31:44;;;;;;;1.25;0.32;;;23.50;64.10;;;;;;6243520;28;20040;-52
2022/10/22 12:34:48;;;;;;;1.83;0.70;;;23.70;64.00;;;;;;6229294;28;20052;-54
2022/10/22 12:37:52;;;;;;;1.20;0.30;;;23.60;64.00;;;;;;6229308;28;20045;-54
2022/10/22 12:40:56;;;;;;;0.95;0.30;;;23.50;63.90;;;;;;6241639;28;20611;-52
2022/10/22 12:43:59;;;;;;;0.93;0.30;;;23.60;63.90;;;;;;6228064;28;20227;-52
2022/10/22 12:47:01;;;;;;;1.25;0.60;;;23.30;63.70;;;;;;6222959;28;20514;-51
2022/10/22 12:50:05;;;;;;;1.55;0.40;;;23.60;63.90;;;;;;6246360;28;20274;-51
2022/10/22 12:53:14;;;;;;;0.90;0.40;;;23.60;63.60;;;;;;6251855;28;20059;-53
2022/10/22 12:56:20;;;;;;;0.57;0.30;;;23.60;63.50;;;;;;6232081;28;20050;-55
2022/10/22 12:59:25;;;;;;;1.10;0.30;;;23.10;63.10;;;;;;6245548;28;20041;-51
2022/10/22 13:02:28;;;;;;;0.75;0.30;;;24.00;63.50;;;;;;6225352;28;20514;-52
2022/10/22 13:05:37;;;;;;;1.38;0.43;;;23.70;63.10;;;;;;6244257;28;20170;-51
2022/10/22 13:08:39;;;;;;;1.00;0.50;;;23.30;62.90;;;;;;6224006;28;20214;-53
2022/10/22 13:11:48;;;;;;;0.75;0.22;;;23.20;62.70;;;;;;6242792;28;20051;-53
2022/10/22 13:14:49;;;;;;;1.30;0.40;;;23.40;62.70;;;;;;6224484;28;20463;-52
2022/10/22 13:18:01;;;;;;;2.08;0.40;;;23.60;62.90;;;;;;6235730;28;20501;-52
2022/10/22 13:21:04;;;;;;;0.60;0.30;;;23.40;62.50;;;;;;6214136;28;20374;-55
2022/10/22 13:24:19;;;;;;;1.00;0.30;;;23.40;62.50;;;;;;6240160;28;20193;-54
2022/10/22 13:27:22;;;;;;;1.20;0.45;;;23.80;62.60;;;;;;6216125;28;20080;-53
2022/10/22 13:30:25;;;;;;;1.45;0.38;;;23.10;62.00;;;;;;6240272;28;20049;-53
2022/10/22 13:33:32;;;;;;;1.02;0.20;;;23.70;62.30;;;;;;6223164;28;20306;-54
2022/10/22 13:36:34;;;;;;;1.00;0.40;;;23.70;62.10;;;;;;6242678;28;20248;-51
2022/10/22 13:39:35;;;;;;;2.28;0.40;;;23.60;62.00;;;;;;6238397;28;20048;-52
2022/10/22 13:42:38;;;;;;;0.68;0.38;;;24.10;62.00;;;;;;6245160;28;20933;-52
2022/10/22 13:45:40;;;;;;;1.42;0.57;;;23.80;62.00;;;;;;6229259;28;20105;-50
2022/10/22 13:48:43;;;;;;;1.42;0.30;;;23.90;61.70;;;;;;6233912;28;20048;-51
2022/10/22 13:51:46;;;;;;;2.33;0.40;;;23.50;61.30;;;;;;6226863;28;20085;-54
2022/10/22 13:54:48;;;;;;;0.80;0.30;;;23.50;61.20;;;;;;6202294;28;20236;-55
2022/10/22 13:57:49;;;;;;;1.23;0.40;;;23.80;61.40;;;;;;6234658;28;20490;-56
2022/10/22 14:00:54;;;;;;;1.08;0.35;;;23.90;61.30;;;;;;6219500;28;20071;-50
2022/10/22 14:04:00;;;;;;;0.60;0.38;;;23.40;60.70;;;;;;6233670;28;20559;-53
2022/10/22 14:07:02;;;;;;;1.25;0.38;;;23.70;60.80;;;;;;6214900;28;20032;-53
2022/10/22 14:10:14;;;;;;;0.52;0.20;;;24.00;60.90;;;;;;6234864;28;20267;-51
2022/10/22 14:13:17;;;;;;;0.50;0.20;;;23.90;60.30;;;;;;6225563;28;20566;-52
2022/10/22 14:16:22;;;;;;;0.73;0.20;;;23.90;60.30;;;;;;6225454;28;20656;-52
2022/10/22 14:19:24;;;;;;;0.30;0.10;;;23.50;59.90;;;;;;6220236;28;20081;-51
2022/10/22 14:22:27;;;;;;;0.57;0.20;;;23.90;60.10;;;;;;6234885;28;20585;-56
2022/10/22 14:25:30;;;;;;;0.30;0.20;;;24.40;60.10;;;;;;6243905;28;20753;-54
2022/10/22 14:28:32;;;;;;;0.43;0.20;;;23.90;59.80;;;;;;6242343;28;20048;-50
2022/10/22 14:31:47;;;;;;;0.60;0.10;;;24.00;59.70;;;;;;6241878;28;20300;-53
2022/10/22 14:34:49;;;;;;;0.52;0.20;;;23.60;59.60;;;;;;6241100;28;20641;-53
2022/10/22 14:37:51;;;;;;;0.30;0.20;;;23.60;59.30;;;;;;6228573;28;20131;-51
2022/10/22 14:40:52;;;;;;;0.20;0.10;;;23.50;59.10;;;;;;6237329;28;20434;-52
2022/10/22 14:43:54;;;;;;;0.32;0.10;;;24.00;59.30;;;;;;6244912;28;20044;-55
2022/10/22 14:46:56;;;;;;;0.55;0.30;;;23.70;58.90;;;;;;6242847;28;20409;-52
2022/10/22 14:49:58;;;;;;;0.30;0.20;;;23.40;58.50;;;;;;6242632;28;20051;-53
2022/10/22 14:52:59;;;;;;;0.30;0.20;;;23.60;58.70;;;;;;6235739;28;20200;-52
2022/10/22 14:56:02;;;;;;;0.95;0.20;;;24.00;58.90;;;;;;6219650;28;20044;-51
2022/10/22 14:59:03;;;;;;;0.17;0.17;;;23.90;58.70;;;;;;6238955;28;20799;-54
2022/10/22 15:02:09;;;;;;;;;;;24.00;58.70;;;;;;6241203;28;20288;-55
2022/10/22 15:05:12;;;;;;;0.32;0.20;;;24.30;59.00;;;;;;6219240;28;20378;-52
2022/10/22 15:08:14;;;;;;;0.20;0.20;;;23.80;58.50;;;;;;6217609;28;20339;-54
2022/10/22 15:11:15;;;;;;;0.55;0.10;;;24.00;58.70;;;;;;6224814;28;20196;-53
2022/10/22 15:14:17;;;;;;;0.30;0.20;;;24.10;58.70;;;;;;6218336;28;20083;-53
2022/10/22 15:17:18;;;;;;;0.25;0.20;;;23.70;58.70;;;;;;6236834;28;20903;-52
2022/10/22 15:20:20;;;;;;;0.25;0.10;;;23.90;58.90;;;;;;6240541;28;20527;-50
2022/10/22 15:23:22;;;;;;;0.10;0.10;;;23.70;58.80;;;;;;6245122;28;20048;-53
2022/10/22 15:26:24;;;;;;;0.28;0.20;;;23.90;58.90;;;;;;6245595;28;20355;-52
2022/10/22 15:29:25;;;;;;;0.38;0.20;;;24.00;59.10;;;;;;6233642;28;20044;-52
2022/10/22 15:32:28;;;;;;;0.30;0.10;;;23.90;59.10;;;;;;6240397;28;20186;-53
2022/10/22 15:35:30;;;;;;;0.38;0.25;;;24.00;59.10;;;;;;6245802;28;20808;-52
2022/10/22 15:38:31;;;;;;;0.50;0.20;;;23.80;58.90;;;;;;6244503;28;20033;-54
2022/10/22 15:41:32;;;;;;;0.30;0.10;;;23.70;59.10;;;;;;6244543;28;20434;-54
2022/10/22 15:44:35;;;;;;;0.52;0.35;;;24.10;59.20;;;;;;6239007;28;20422;-53
2022/10/22 15:47:36;;;;;;;0.30;0.20;;;23.80;59.00;;;;;;6246529;28;20486;-53
2022/10/22 15:50:38;;;;;;;0.70;0.40;;;24.40;59.40;;;;;;6238705;28;20295;-53
2022/10/22 15:53:40;;;;;;;0.30;0.20;;;23.80;59.10;;;;;;6241089;28;21587;-51
2022/10/22 15:56:42;;;;;;;0.28;0.20;;;24.20;59.20;;;;;;6228495;28;20733;-52
2022/10/22 15:59:43;;;;;;;0.50;0.38;;;23.90;59.20;;;;;;6240639;28;20151;-51
2022/10/22 16:02:45;;;;;;;0.35;0.30;;;24.30;59.40;;;;;;6238876;28;20268;-53
2022/10/22 16:05:50;;;;;;;0.55;0.30;;;23.60;59.10;;;;;;6244989;28;20290;-52
2022/10/22 16:08:52;;;;;;;0.40;0.28;;;24.10;59.20;;;;;;6225110;28;20491;-54
2022/10/22 16:11:55;;;;;;;0.63;0.40;;;23.80;59.20;;;;;;6249074;28;20040;-51